sensor_id;sensor_type;location;lat;lon;timestamp;P1;durP1;ratioP1;P2;durP2;ratioP2
82711;SDS011;72433;41.992;21.438;2024-01-25T00:02:24;42.50;;;25.58;;
82711;SDS011;72433;41.992;21.438;2024-01-25T00:04:51;47.38;;;29.35;;
82711;SDS011;72433;41.992;21.438;2024-01-25T00:07:17;52.88;;;30.25;;
82711;SDS011;72433;41.992;21.438;2024-01-25T00:09:43;54.75;;;31.65;;
82711;SDS011;72433;41.992;21.438;2024-01-25T00:12:09;56.33;;;32.78;;
82711;SDS011;72433;41.992;21.438;2024-01-25T00:14:35;64.22;;;35.65;;
82711;SDS011;72433;41.992;21.438;2024-01-25T00:17:01;70.82;;;38.95;;
82711;SDS011;72433;41.992;21.438;2024-01-25T00:19:27;71.22;;;40.10;;
82711;SDS011;72433;41.992;21.438;2024-01-25T00:21:53;69.00;;;39.58;;
82711;SDS011;72433;41.992;21.438;2024-01-25T00:24:19;69.10;;;39.83;;
82711;SDS011;72433;41.992;21.438;2024-01-25T00:26:46;78.32;;;39.78;;
82711;SDS011;72433;41.992;21.438;2024-01-25T00:29:12;73.97;;;40.83;;
82711;SDS011;72433;41.992;21.438;2024-01-25T00:31:38;72.65;;;41.17;;
82711;SDS011;72433;41.992;21.438;2024-01-25T00:34:04;66.70;;;39.25;;
82711;SDS011;72433;41.992;21.438;2024-01-25T00:36:30;63.85;;;35.45;;
82711;SDS011;72433;41.992;21.438;2024-01-25T00:38:56;68.38;;;40.28;;
82711;SDS011;72433;41.992;21.438;2024-01-25T00:41:23;75.07;;;40.70;;
82711;SDS011;72433;41.992;21.438;2024-01-25T00:43:49;72.65;;;42.85;;
82711;SDS011;72433;41.992;21.438;2024-01-25T00:46:15;74.15;;;41.65;;
82711;SDS011;72433;41.992;21.438;2024-01-25T00:48:42;83.18;;;48.47;;
82711;SDS011;72433;41.992;21.438;2024-01-25T00:51:08;83.18;;;49.28;;
82711;SDS011;72433;41.992;21.438;2024-01-25T00:53:40;86.05;;;49.92;;
82711;SDS011;72433;41.992;21.438;2024-01-25T00:56:06;82.28;;;47.45;;
82711;SDS011;72433;41.992;21.438;2024-01-25T00:58:32;79.68;;;45.00;;
82711;SDS011;72433;41.992;21.438;2024-01-25T01:00:58;81.47;;;46.05;;
82711;SDS011;72433;41.992;21.438;2024-01-25T01:03:25;75.78;;;44.08;;
82711;SDS011;72433;41.992;21.438;2024-01-25T01:05:51;76.35;;;43.03;;
82711;SDS011;72433;41.992;21.438;2024-01-25T01:08:17;74.38;;;44.30;;
82711;SDS011;72433;41.992;21.438;2024-01-25T01:10:43;75.07;;;42.03;;
82711;SDS011;72433;41.992;21.438;2024-01-25T01:13:10;75.30;;;38.22;;
82711;SDS011;72433;41.992;21.438;2024-01-25T01:15:36;68.43;;;38.95;;
82711;SDS011;72433;41.992;21.438;2024-01-25T01:18:02;65.95;;;37.58;;
82711;SDS011;72433;41.992;21.438;2024-01-25T01:20:30;66.18;;;38.13;;
82711;SDS011;72433;41.992;21.438;2024-01-25T01:22:56;65.97;;;38.38;;
82711;SDS011;72433;41.992;21.438;2024-01-25T01:25:22;73.78;;;40.20;;
82711;SDS011;72433;41.992;21.438;2024-01-25T01:27:48;68.30;;;39.92;;
82711;SDS011;72433;41.992;21.438;2024-01-25T01:30:14;71.22;;;39.83;;
82711;SDS011;72433;41.992;21.438;2024-01-25T01:32:40;72.18;;;40.13;;
82711;SDS011;72433;41.992;21.438;2024-01-25T01:35:06;68.53;;;40.17;;
82711;SDS011;72433;41.992;21.438;2024-01-25T01:37:33;66.78;;;36.28;;
82711;SDS011;72433;41.992;21.438;2024-01-25T01:39:59;69.53;;;37.33;;
82711;SDS011;72433;41.992;21.438;2024-01-25T01:42:25;66.80;;;38.17;;
82711;SDS011;72433;41.992;21.438;2024-01-25T01:44:51;71.00;;;38.67;;
82711;SDS011;72433;41.992;21.438;2024-01-25T01:47:18;64.78;;;36.38;;
82711;SDS011;72433;41.992;21.438;2024-01-25T01:49:44;67.03;;;36.40;;
82711;SDS011;72433;41.992;21.438;2024-01-25T01:52:11;68.57;;;39.35;;
82711;SDS011;72433;41.992;21.438;2024-01-25T01:54:37;63.78;;;37.05;;
82711;SDS011;72433;41.992;21.438;2024-01-25T01:57:03;70.85;;;38.13;;
82711;SDS011;72433;41.992;21.438;2024-01-25T01:59:30;61.45;;;33.28;;
82711;SDS011;72433;41.992;21.438;2024-01-25T02:01:56;61.03;;;33.58;;
82711;SDS011;72433;41.992;21.438;2024-01-25T02:04:22;53.40;;;32.20;;
82711;SDS011;72433;41.992;21.438;2024-01-25T02:06:49;52.15;;;27.05;;
82711;SDS011;72433;41.992;21.438;2024-01-25T02:09:15;48.97;;;25.27;;
82711;SDS011;72433;41.992;21.438;2024-01-25T02:11:41;39.88;;;25.17;;
82711;SDS011;72433;41.992;21.438;2024-01-25T02:14:07;37.97;;;23.48;;
82711;SDS011;72433;41.992;21.438;2024-01-25T02:16:36;42.72;;;23.45;;
82711;SDS011;72433;41.992;21.438;2024-01-25T02:19:03;40.33;;;25.45;;
82711;SDS011;72433;41.992;21.438;2024-01-25T02:21:29;45.03;;;24.33;;
82711;SDS011;72433;41.992;21.438;2024-01-25T02:23:55;39.13;;;23.17;;
82711;SDS011;72433;41.992;21.438;2024-01-25T02:26:21;40.58;;;23.33;;
82711;SDS011;72433;41.992;21.438;2024-01-25T02:28:47;31.85;;;19.35;;
82711;SDS011;72433;41.992;21.438;2024-01-25T02:31:13;38.08;;;22.00;;
82711;SDS011;72433;41.992;21.438;2024-01-25T02:33:39;35.70;;;22.08;;
82711;SDS011;72433;41.992;21.438;2024-01-25T02:36:06;27.80;;;18.60;;
82711;SDS011;72433;41.992;21.438;2024-01-25T02:38:32;30.85;;;20.10;;
82711;SDS011;72433;41.992;21.438;2024-01-25T02:40:58;32.80;;;18.85;;
82711;SDS011;72433;41.992;21.438;2024-01-25T02:43:24;29.83;;;18.00;;
82711;SDS011;72433;41.992;21.438;2024-01-25T02:45:50;28.33;;;19.25;;
82711;SDS011;72433;41.992;21.438;2024-01-25T02:48:16;30.33;;;18.88;;
82711;SDS011;72433;41.992;21.438;2024-01-25T02:50:42;32.90;;;19.50;;
82711;SDS011;72433;41.992;21.438;2024-01-25T02:53:08;32.38;;;21.33;;
82711;SDS011;72433;41.992;21.438;2024-01-25T02:55:35;33.70;;;18.85;;
82711;SDS011;72433;41.992;21.438;2024-01-25T02:58:01;33.53;;;19.50;;
82711;SDS011;72433;41.992;21.438;2024-01-25T03:00:27;32.42;;;19.27;;
82711;SDS011;72433;41.992;21.438;2024-01-25T03:02:53;33.45;;;19.85;;
82711;SDS011;72433;41.992;21.438;2024-01-25T03:05:19;33.30;;;19.30;;
82711;SDS011;72433;41.992;21.438;2024-01-25T03:07:45;27.23;;;17.60;;
82711;SDS011;72433;41.992;21.438;2024-01-25T03:10:11;30.67;;;17.92;;
82711;SDS011;72433;41.992;21.438;2024-01-25T03:12:38;29.60;;;18.00;;
82711;SDS011;72433;41.992;21.438;2024-01-25T03:15:04;25.73;;;17.20;;
82711;SDS011;72433;41.992;21.438;2024-01-25T03:17:31;30.00;;;17.05;;
82711;SDS011;72433;41.992;21.438;2024-01-25T03:19:57;26.55;;;16.65;;
82711;SDS011;72433;41.992;21.438;2024-01-25T03:22:23;26.20;;;15.63;;
82711;SDS011;72433;41.992;21.438;2024-01-25T03:24:49;23.60;;;14.50;;
82711;SDS011;72433;41.992;21.438;2024-01-25T03:27:16;25.27;;;15.63;;
82711;SDS011;72433;41.992;21.438;2024-01-25T03:29:42;27.42;;;14.98;;
82711;SDS011;72433;41.992;21.438;2024-01-25T03:32:09;25.15;;;14.90;;
82711;SDS011;72433;41.992;21.438;2024-01-25T03:34:35;24.08;;;15.63;;
82711;SDS011;72433;41.992;21.438;2024-01-25T03:37:01;23.60;;;14.73;;
82711;SDS011;72433;41.992;21.438;2024-01-25T03:39:27;25.08;;;14.70;;
82711;SDS011;72433;41.992;21.438;2024-01-25T03:41:54;21.95;;;13.60;;
82711;SDS011;72433;41.992;21.438;2024-01-25T03:44:20;23.33;;;12.90;;
82711;SDS011;72433;41.992;21.438;2024-01-25T03:46:46;24.50;;;13.82;;
82711;SDS011;72433;41.992;21.438;2024-01-25T03:49:12;22.02;;;14.02;;
82711;SDS011;72433;41.992;21.438;2024-01-25T03:51:38;24.73;;;14.35;;
82711;SDS011;72433;41.992;21.438;2024-01-25T03:54:04;18.10;;;12.77;;
82711;SDS011;72433;41.992;21.438;2024-01-25T03:56:30;25.70;;;13.32;;
82711;SDS011;72433;41.992;21.438;2024-01-25T03:58:56;22.23;;;13.50;;
82711;SDS011;72433;41.992;21.438;2024-01-25T04:01:23;24.30;;;15.70;;
82711;SDS011;72433;41.992;21.438;2024-01-25T04:03:49;21.80;;;13.95;;
82711;SDS011;72433;41.992;21.438;2024-01-25T04:06:15;21.35;;;14.20;;
82711;SDS011;72433;41.992;21.438;2024-01-25T04:08:42;21.52;;;13.77;;
82711;SDS011;72433;41.992;21.438;2024-01-25T05:31:14;41.25;;;22.92;;
82711;SDS011;72433;41.992;21.438;2024-01-25T05:33:41;36.70;;;22.45;;
82711;SDS011;72433;41.992;21.438;2024-01-25T05:36:08;41.25;;;23.88;;
82711;SDS011;72433;41.992;21.438;2024-01-25T05:38:34;46.42;;;25.10;;
82711;SDS011;72433;41.992;21.438;2024-01-25T05:41:00;44.65;;;26.35;;
82711;SDS011;72433;41.992;21.438;2024-01-25T05:43:27;41.97;;;24.60;;
82711;SDS011;72433;41.992;21.438;2024-01-25T05:45:53;40.65;;;24.50;;
82711;SDS011;72433;41.992;21.438;2024-01-25T05:48:19;42.38;;;28.17;;
82711;SDS011;72433;41.992;21.438;2024-01-25T05:50:45;44.45;;;25.88;;
82711;SDS011;72433;41.992;21.438;2024-01-25T05:53:11;43.25;;;27.70;;
82711;SDS011;72433;41.992;21.438;2024-01-25T05:55:37;41.35;;;26.10;;
82711;SDS011;72433;41.992;21.438;2024-01-25T05:58:03;46.45;;;26.05;;
82711;SDS011;72433;41.992;21.438;2024-01-25T06:00:29;47.40;;;25.05;;
82711;SDS011;72433;41.992;21.438;2024-01-25T06:02:56;39.97;;;23.45;;
82711;SDS011;72433;41.992;21.438;2024-01-25T06:05:22;38.33;;;23.52;;
82711;SDS011;72433;41.992;21.438;2024-01-25T06:07:48;38.05;;;23.92;;
82711;SDS011;72433;41.992;21.438;2024-01-25T06:10:18;39.90;;;25.05;;
82711;SDS011;72433;41.992;21.438;2024-01-25T06:12:44;44.05;;;28.17;;
82711;SDS011;72433;41.992;21.438;2024-01-25T06:15:10;50.05;;;28.38;;
82711;SDS011;72433;41.992;21.438;2024-01-25T09:45:21;52.50;;;29.88;;
82711;SDS011;72433;41.992;21.438;2024-01-25T09:47:48;54.10;;;30.80;;
82711;SDS011;72433;41.992;21.438;2024-01-25T09:56:35;55.10;;;30.75;;
82711;SDS011;72433;41.992;21.438;2024-01-25T09:59:03;72.45;;;36.13;;
82711;SDS011;72433;41.992;21.438;2024-01-25T10:01:35;60.80;;;35.38;;
82711;SDS011;72433;41.992;21.438;2024-01-25T10:04:15;62.55;;;33.22;;
82711;SDS011;72433;41.992;21.438;2024-01-25T10:10:35;60.25;;;36.30;;
82711;SDS011;72433;41.992;21.438;2024-01-25T11:47:23;40.55;;;23.52;;
82711;SDS011;72433;41.992;21.438;2024-01-25T11:50:11;27.60;;;16.52;;
82711;SDS011;72433;41.992;21.438;2024-01-25T11:58:39;11.25;;;5.82;;
82711;SDS011;72433;41.992;21.438;2024-01-25T12:01:09;9.98;;;4.72;;
82711;SDS011;72433;41.992;21.438;2024-01-25T12:03:38;8.90;;;4.80;;
82711;SDS011;72433;41.992;21.438;2024-01-25T12:12:03;9.65;;;4.93;;
82711;SDS011;72433;41.992;21.438;2024-01-25T12:17:18;6.68;;;3.22;;
82711;SDS011;72433;41.992;21.438;2024-01-25T12:29:06;7.10;;;3.90;;
82711;SDS011;72433;41.992;21.438;2024-01-25T12:31:36;6.75;;;3.65;;
82711;SDS011;72433;41.992;21.438;2024-01-25T12:34:02;9.10;;;4.35;;
82711;SDS011;72433;41.992;21.438;2024-01-25T12:36:54;8.48;;;3.95;;
82711;SDS011;72433;41.992;21.438;2024-01-25T12:39:23;7.15;;;3.05;;
82711;SDS011;72433;41.992;21.438;2024-01-25T12:41:49;42.28;;;20.00;;
82711;SDS011;72433;41.992;21.438;2024-01-25T12:47:08;8.75;;;3.42;;
82711;SDS011;72433;41.992;21.438;2024-01-25T12:49:47;8.90;;;3.55;;
82711;SDS011;72433;41.992;21.438;2024-01-25T12:52:59;6.95;;;3.72;;
82711;SDS011;72433;41.992;21.438;2024-01-25T12:55:20;5.45;;;3.55;;
82711;SDS011;72433;41.992;21.438;2024-01-25T13:01:09;9.48;;;4.35;;
82711;SDS011;72433;41.992;21.438;2024-01-25T13:03:38;6.75;;;3.33;;
82711;SDS011;72433;41.992;21.438;2024-01-25T13:12:11;8.60;;;4.15;;
82711;SDS011;72433;41.992;21.438;2024-01-25T13:15:09;10.13;;;4.70;;
82711;SDS011;72433;41.992;21.438;2024-01-25T13:17:57;7.93;;;3.15;;
82711;SDS011;72433;41.992;21.438;2024-01-25T13:20:30;9.60;;;4.05;;
82711;SDS011;72433;41.992;21.438;2024-01-25T13:22:57;8.75;;;3.42;;
82711;SDS011;72433;41.992;21.438;2024-01-25T13:25:23;9.25;;;4.25;;
82711;SDS011;72433;41.992;21.438;2024-01-25T13:27:49;6.85;;;3.40;;
82711;SDS011;72433;41.992;21.438;2024-01-25T13:30:17;10.50;;;3.55;;
82711;SDS011;72433;41.992;21.438;2024-01-25T13:32:44;7.15;;;3.42;;
82711;SDS011;72433;41.992;21.438;2024-01-25T13:38:10;8.60;;;4.00;;
82711;SDS011;72433;41.992;21.438;2024-01-25T13:40:42;12.55;;;4.15;;
82711;SDS011;72433;41.992;21.438;2024-01-25T13:43:17;10.93;;;5.15;;
82711;SDS011;72433;41.992;21.438;2024-01-25T13:45:48;7.47;;;3.38;;
82711;SDS011;72433;41.992;21.438;2024-01-25T13:48:17;8.40;;;3.55;;
82711;SDS011;72433;41.992;21.438;2024-01-25T13:50:44;6.68;;;2.45;;
82711;SDS011;72433;41.992;21.438;2024-01-25T13:53:19;5.85;;;2.25;;
82711;SDS011;72433;41.992;21.438;2024-01-25T13:56:00;6.50;;;2.72;;
82711;SDS011;72433;41.992;21.438;2024-01-25T13:58:27;14.05;;;5.80;;
82711;SDS011;72433;41.992;21.438;2024-01-25T14:01:18;8.30;;;3.55;;
82711;SDS011;72433;41.992;21.438;2024-01-25T14:03:56;5.38;;;2.47;;
82711;SDS011;72433;41.992;21.438;2024-01-25T14:06:48;5.30;;;2.63;;
82711;SDS011;72433;41.992;21.438;2024-01-25T14:09:21;4.82;;;2.08;;
82711;SDS011;72433;41.992;21.438;2024-01-25T14:15:06;10.25;;;2.90;;
82711;SDS011;72433;41.992;21.438;2024-01-25T14:31:46;6.22;;;3.25;;
82711;SDS011;72433;41.992;21.438;2024-01-25T14:34:12;8.15;;;2.80;;
82711;SDS011;72433;41.992;21.438;2024-01-25T14:36:39;6.65;;;2.92;;
82711;SDS011;72433;41.992;21.438;2024-01-25T14:39:11;11.38;;;4.15;;
82711;SDS011;72433;41.992;21.438;2024-01-25T14:44:26;13.55;;;6.88;;
82711;SDS011;72433;41.992;21.438;2024-01-25T14:47:03;25.85;;;15.45;;
82711;SDS011;72433;41.992;21.438;2024-01-25T14:49:32;11.45;;;6.00;;
82711;SDS011;72433;41.992;21.438;2024-01-25T14:51:59;12.98;;;6.65;;
82711;SDS011;72433;41.992;21.438;2024-01-25T14:54:28;12.70;;;6.10;;
82711;SDS011;72433;41.992;21.438;2024-01-25T14:56:56;38.80;;;15.98;;
82711;SDS011;72433;41.992;21.438;2024-01-25T14:59:26;18.45;;;7.88;;
82711;SDS011;72433;41.992;21.438;2024-01-25T15:05:34;9.90;;;5.80;;
82711;SDS011;72433;41.992;21.438;2024-01-25T15:08:06;9.90;;;5.55;;
82711;SDS011;72433;41.992;21.438;2024-01-25T15:10:35;12.40;;;5.15;;
82711;SDS011;72433;41.992;21.438;2024-01-25T15:18:51;9.02;;;4.22;;
82711;SDS011;72433;41.992;21.438;2024-01-25T15:24:09;11.57;;;4.80;;
82711;SDS011;72433;41.992;21.438;2024-01-25T15:26:44;13.07;;;4.20;;
82711;SDS011;72433;41.992;21.438;2024-01-25T15:29:11;15.65;;;5.38;;
82711;SDS011;72433;41.992;21.438;2024-01-25T15:31:37;8.35;;;4.13;;
82711;SDS011;72433;41.992;21.438;2024-01-25T15:37:12;12.93;;;5.22;;
82711;SDS011;72433;41.992;21.438;2024-01-25T15:46:08;25.60;;;12.95;;
82711;SDS011;72433;41.992;21.438;2024-01-25T15:52:13;47.10;;;21.98;;
82711;SDS011;72433;41.992;21.438;2024-01-25T16:32:05;27.45;;;10.18;;
82711;SDS011;72433;41.992;21.438;2024-01-25T16:34:31;14.73;;;8.30;;
82711;SDS011;72433;41.992;21.438;2024-01-25T16:36:58;21.83;;;7.78;;
82711;SDS011;72433;41.992;21.438;2024-01-25T16:39:24;17.25;;;7.50;;
82711;SDS011;72433;41.992;21.438;2024-01-25T16:41:53;10.80;;;7.05;;
82711;SDS011;72433;41.992;21.438;2024-01-25T16:44:19;13.27;;;6.78;;
82711;SDS011;72433;41.992;21.438;2024-01-25T16:46:45;12.07;;;6.72;;
82711;SDS011;72433;41.992;21.438;2024-01-25T16:49:11;14.73;;;8.98;;
82711;SDS011;72433;41.992;21.438;2024-01-25T16:51:37;35.08;;;15.65;;
82711;SDS011;72433;41.992;21.438;2024-01-25T16:54:03;20.77;;;8.57;;
82711;SDS011;72433;41.992;21.438;2024-01-25T16:56:30;22.15;;;9.80;;
82711;SDS011;72433;41.992;21.438;2024-01-25T16:58:56;22.73;;;13.10;;
82711;SDS011;72433;41.992;21.438;2024-01-25T17:01:22;17.65;;;8.93;;
82711;SDS011;72433;41.992;21.438;2024-01-25T17:03:54;22.92;;;10.63;;
82711;SDS011;72433;41.992;21.438;2024-01-25T17:06:20;21.70;;;9.60;;
82711;SDS011;72433;41.992;21.438;2024-01-25T17:08:50;23.77;;;11.23;;
82711;SDS011;72433;41.992;21.438;2024-01-25T17:11:16;21.92;;;10.57;;
82711;SDS011;72433;41.992;21.438;2024-01-25T17:13:42;26.02;;;13.13;;
82711;SDS011;72433;41.992;21.438;2024-01-25T17:16:08;32.70;;;14.57;;
82711;SDS011;72433;41.992;21.438;2024-01-25T17:18:34;30.27;;;15.10;;
82711;SDS011;72433;41.992;21.438;2024-01-25T17:21:00;33.90;;;16.95;;
82711;SDS011;72433;41.992;21.438;2024-01-25T17:23:26;66.65;;;38.63;;
82711;SDS011;72433;41.992;21.438;2024-01-25T17:25:53;37.92;;;22.17;;
82711;SDS011;72433;41.992;21.438;2024-01-25T17:28:19;56.15;;;27.58;;
82711;SDS011;72433;41.992;21.438;2024-01-25T17:30:45;41.67;;;21.60;;
82711;SDS011;72433;41.992;21.438;2024-01-25T17:33:11;50.58;;;23.23;;
82711;SDS011;72433;41.992;21.438;2024-01-25T17:35:37;44.95;;;25.75;;
82711;SDS011;72433;41.992;21.438;2024-01-25T17:38:07;45.45;;;22.42;;
82711;SDS011;72433;41.992;21.438;2024-01-25T17:40:33;45.83;;;20.13;;
82711;SDS011;72433;41.992;21.438;2024-01-25T17:42:59;44.55;;;22.35;;
82711;SDS011;72433;41.992;21.438;2024-01-25T17:45:25;43.92;;;19.58;;
82711;SDS011;72433;41.992;21.438;2024-01-25T17:48:02;158.18;;;69.57;;
82711;SDS011;72433;41.992;21.438;2024-01-25T17:50:28;99.47;;;48.30;;
82711;SDS011;72433;41.992;21.438;2024-01-25T17:52:54;56.00;;;28.65;;
82711;SDS011;72433;41.992;21.438;2024-01-25T17:55:20;90.93;;;44.88;;
82711;SDS011;72433;41.992;21.438;2024-01-25T17:57:46;78.90;;;36.90;;
82711;SDS011;72433;41.992;21.438;2024-01-25T18:00:13;38.92;;;19.02;;
82711;SDS011;72433;41.992;21.438;2024-01-25T18:02:39;38.17;;;19.67;;
82711;SDS011;72433;41.992;21.438;2024-01-25T18:05:05;35.38;;;19.83;;
82711;SDS011;72433;41.992;21.438;2024-01-25T18:07:31;40.30;;;18.58;;
82711;SDS011;72433;41.992;21.438;2024-01-25T18:10:05;33.47;;;17.00;;
82711;SDS011;72433;41.992;21.438;2024-01-25T18:12:37;33.00;;;18.00;;
82711;SDS011;72433;41.992;21.438;2024-01-25T18:15:04;42.63;;;19.58;;
82711;SDS011;72433;41.992;21.438;2024-01-25T18:17:30;44.10;;;20.08;;
82711;SDS011;72433;41.992;21.438;2024-01-25T18:19:56;41.03;;;20.30;;
82711;SDS011;72433;41.992;21.438;2024-01-25T18:22:22;38.67;;;21.05;;
82711;SDS011;72433;41.992;21.438;2024-01-25T18:24:51;38.10;;;22.48;;
82711;SDS011;72433;41.992;21.438;2024-01-25T18:27:17;36.00;;;20.45;;
82711;SDS011;72433;41.992;21.438;2024-01-25T18:29:44;32.00;;;18.60;;
82711;SDS011;72433;41.992;21.438;2024-01-25T18:32:10;34.42;;;19.58;;
82711;SDS011;72433;41.992;21.438;2024-01-25T18:34:36;33.65;;;17.42;;
82711;SDS011;72433;41.992;21.438;2024-01-25T18:37:02;34.97;;;16.75;;
82711;SDS011;72433;41.992;21.438;2024-01-25T18:39:28;36.05;;;22.30;;
82711;SDS011;72433;41.992;21.438;2024-01-25T18:41:54;32.50;;;15.68;;
82711;SDS011;72433;41.992;21.438;2024-01-25T18:44:21;36.70;;;21.25;;
82711;SDS011;72433;41.992;21.438;2024-01-25T18:46:48;27.45;;;14.48;;
82711;SDS011;72433;41.992;21.438;2024-01-25T18:49:14;24.10;;;14.55;;
82711;SDS011;72433;41.992;21.438;2024-01-25T18:51:40;24.88;;;14.57;;
82711;SDS011;72433;41.992;21.438;2024-01-25T18:54:06;36.50;;;21.25;;
82711;SDS011;72433;41.992;21.438;2024-01-25T18:56:36;33.47;;;19.88;;
82711;SDS011;72433;41.992;21.438;2024-01-25T18:59:02;32.63;;;18.33;;
82711;SDS011;72433;41.992;21.438;2024-01-25T19:01:28;26.73;;;15.93;;
82711;SDS011;72433;41.992;21.438;2024-01-25T19:03:55;27.92;;;14.20;;
82711;SDS011;72433;41.992;21.438;2024-01-25T19:06:21;38.17;;;20.77;;
82711;SDS011;72433;41.992;21.438;2024-01-25T19:08:47;31.67;;;16.42;;
82711;SDS011;72433;41.992;21.438;2024-01-25T19:11:13;28.83;;;16.38;;
82711;SDS011;72433;41.992;21.438;2024-01-25T19:13:39;33.05;;;18.23;;
82711;SDS011;72433;41.992;21.438;2024-01-25T19:16:05;31.05;;;17.33;;
82711;SDS011;72433;41.992;21.438;2024-01-25T19:18:32;32.53;;;16.95;;
82711;SDS011;72433;41.992;21.438;2024-01-25T19:20:58;30.05;;;16.50;;
82711;SDS011;72433;41.992;21.438;2024-01-25T19:23:24;28.48;;;16.83;;
82711;SDS011;72433;41.992;21.438;2024-01-25T19:25:50;27.17;;;16.10;;
82711;SDS011;72433;41.992;21.438;2024-01-25T19:28:16;35.65;;;18.80;;
82711;SDS011;72433;41.992;21.438;2024-01-25T19:30:42;28.98;;;16.45;;
82711;SDS011;72433;41.992;21.438;2024-01-25T19:33:08;33.72;;;15.23;;
82711;SDS011;72433;41.992;21.438;2024-01-25T19:35:34;36.60;;;18.45;;
82711;SDS011;72433;41.992;21.438;2024-01-25T19:38:01;32.15;;;15.98;;
82711;SDS011;72433;41.992;21.438;2024-01-25T19:40:27;30.60;;;16.40;;
82711;SDS011;72433;41.992;21.438;2024-01-25T19:42:53;31.25;;;17.02;;
82711;SDS011;72433;41.992;21.438;2024-01-25T19:45:19;29.23;;;16.33;;
82711;SDS011;72433;41.992;21.438;2024-01-25T19:47:45;31.77;;;15.93;;
82711;SDS011;72433;41.992;21.438;2024-01-25T19:50:11;29.15;;;17.33;;
82711;SDS011;72433;41.992;21.438;2024-01-25T19:52:38;44.22;;;21.98;;
82711;SDS011;72433;41.992;21.438;2024-01-25T19:55:06;30.02;;;15.80;;
82711;SDS011;72433;41.992;21.438;2024-01-25T19:57:32;35.88;;;17.23;;
82711;SDS011;72433;41.992;21.438;2024-01-25T19:59:58;29.15;;;15.63;;
82711;SDS011;72433;41.992;21.438;2024-01-25T20:02:25;27.20;;;14.27;;
82711;SDS011;72433;41.992;21.438;2024-01-25T20:04:51;28.90;;;16.35;;
82711;SDS011;72433;41.992;21.438;2024-01-25T20:07:17;28.80;;;16.65;;
82711;SDS011;72433;41.992;21.438;2024-01-25T20:09:43;28.08;;;14.93;;
82711;SDS011;72433;41.992;21.438;2024-01-25T20:12:09;33.38;;;14.70;;
82711;SDS011;72433;41.992;21.438;2024-01-25T20:14:35;28.17;;;14.93;;
82711;SDS011;72433;41.992;21.438;2024-01-25T20:17:02;29.52;;;17.00;;
82711;SDS011;72433;41.992;21.438;2024-01-25T20:19:28;35.90;;;17.70;;
82711;SDS011;72433;41.992;21.438;2024-01-25T20:21:54;37.67;;;18.15;;
82711;SDS011;72433;41.992;21.438;2024-01-25T20:24:20;32.00;;;13.05;;
82711;SDS011;72433;41.992;21.438;2024-01-25T20:26:46;19.85;;;8.57;;
82711;SDS011;72433;41.992;21.438;2024-01-25T20:29:12;16.75;;;8.50;;
82711;SDS011;72433;41.992;21.438;2024-01-25T20:31:41;8.13;;;3.95;;
82711;SDS011;72433;41.992;21.438;2024-01-25T20:34:07;12.27;;;7.43;;
82711;SDS011;72433;41.992;21.438;2024-01-25T20:36:33;15.30;;;9.18;;
82711;SDS011;72433;41.992;21.438;2024-01-25T20:38:59;15.57;;;9.68;;
82711;SDS011;72433;41.992;21.438;2024-01-25T20:41:25;12.10;;;7.25;;
82711;SDS011;72433;41.992;21.438;2024-01-25T20:43:51;17.23;;;9.18;;
82711;SDS011;72433;41.992;21.438;2024-01-25T20:46:17;14.95;;;8.57;;
82711;SDS011;72433;41.992;21.438;2024-01-25T20:48:43;11.23;;;6.88;;
82711;SDS011;72433;41.992;21.438;2024-01-25T20:51:10;12.05;;;7.38;;
82711;SDS011;72433;41.992;21.438;2024-01-25T20:53:36;13.65;;;7.70;;
82711;SDS011;72433;41.992;21.438;2024-01-25T20:56:03;10.60;;;6.65;;
82711;SDS011;72433;41.992;21.438;2024-01-25T20:58:29;11.32;;;6.90;;
82711;SDS011;72433;41.992;21.438;2024-01-25T21:00:55;10.30;;;5.95;;
82711;SDS011;72433;41.992;21.438;2024-01-25T21:03:21;8.02;;;3.97;;
82711;SDS011;72433;41.992;21.438;2024-01-25T21:05:47;11.73;;;5.68;;
82711;SDS011;72433;41.992;21.438;2024-01-25T21:08:14;9.77;;;4.63;;
82711;SDS011;72433;41.992;21.438;2024-01-25T21:10:40;8.88;;;3.40;;
82711;SDS011;72433;41.992;21.438;2024-01-25T21:13:07;8.93;;;4.10;;
82711;SDS011;72433;41.992;21.438;2024-01-25T21:15:33;5.57;;;3.03;;
82711;SDS011;72433;41.992;21.438;2024-01-25T21:17:59;5.65;;;3.17;;
82711;SDS011;72433;41.992;21.438;2024-01-25T21:20:25;7.57;;;3.40;;
82711;SDS011;72433;41.992;21.438;2024-01-25T21:22:51;7.05;;;4.00;;
82711;SDS011;72433;41.992;21.438;2024-01-25T21:25:17;6.05;;;3.88;;
82711;SDS011;72433;41.992;21.438;2024-01-25T21:27:44;6.07;;;3.25;;
82711;SDS011;72433;41.992;21.438;2024-01-25T21:30:10;9.05;;;4.30;;
82711;SDS011;72433;41.992;21.438;2024-01-25T21:32:37;9.40;;;4.38;;
82711;SDS011;72433;41.992;21.438;2024-01-25T21:35:03;6.72;;;3.72;;
82711;SDS011;72433;41.992;21.438;2024-01-25T21:37:30;9.57;;;4.55;;
82711;SDS011;72433;41.992;21.438;2024-01-25T21:39:56;8.60;;;5.03;;
82711;SDS011;72433;41.992;21.438;2024-01-25T21:42:22;9.35;;;4.40;;
82711;SDS011;72433;41.992;21.438;2024-01-25T21:44:48;9.80;;;5.80;;
82711;SDS011;72433;41.992;21.438;2024-01-25T21:47:14;16.83;;;8.10;;
82711;SDS011;72433;41.992;21.438;2024-01-25T21:49:40;24.67;;;10.27;;
82711;SDS011;72433;41.992;21.438;2024-01-25T21:52:06;13.65;;;7.65;;
82711;SDS011;72433;41.992;21.438;2024-01-25T21:54:32;16.60;;;7.55;;
82711;SDS011;72433;41.992;21.438;2024-01-25T21:56:58;16.88;;;10.60;;
82711;SDS011;72433;41.992;21.438;2024-01-25T21:59:25;21.38;;;9.75;;
82711;SDS011;72433;41.992;21.438;2024-01-25T22:01:51;7.07;;;3.90;;
82711;SDS011;72433;41.992;21.438;2024-01-25T22:04:17;7.63;;;3.58;;
82711;SDS011;72433;41.992;21.438;2024-01-25T22:06:50;9.75;;;5.25;;
82711;SDS011;72433;41.992;21.438;2024-01-25T22:09:16;7.72;;;4.50;;
82711;SDS011;72433;41.992;21.438;2024-01-25T22:11:45;7.97;;;3.58;;
82711;SDS011;72433;41.992;21.438;2024-01-25T22:14:11;10.43;;;4.15;;
82711;SDS011;72433;41.992;21.438;2024-01-25T22:16:38;10.05;;;3.13;;
82711;SDS011;72433;41.992;21.438;2024-01-25T22:19:04;7.32;;;3.17;;
82711;SDS011;72433;41.992;21.438;2024-01-25T22:21:30;6.68;;;4.38;;
82711;SDS011;72433;41.992;21.438;2024-01-25T22:23:56;12.63;;;5.00;;
82711;SDS011;72433;41.992;21.438;2024-01-25T22:26:22;7.32;;;3.03;;
82711;SDS011;72433;41.992;21.438;2024-01-25T22:28:48;8.43;;;3.78;;
82711;SDS011;72433;41.992;21.438;2024-01-25T22:31:14;8.63;;;4.22;;
82711;SDS011;72433;41.992;21.438;2024-01-25T22:33:40;9.13;;;4.15;;
82711;SDS011;72433;41.992;21.438;2024-01-25T22:36:07;10.27;;;5.03;;
82711;SDS011;72433;41.992;21.438;2024-01-25T22:38:33;19.10;;;12.18;;
82711;SDS011;72433;41.992;21.438;2024-01-25T22:40:59;12.23;;;4.63;;
82711;SDS011;72433;41.992;21.438;2024-01-25T22:43:25;8.60;;;4.00;;
82711;SDS011;72433;41.992;21.438;2024-01-25T22:45:52;7.05;;;3.95;;
82711;SDS011;72433;41.992;21.438;2024-01-25T22:48:18;10.88;;;4.47;;
82711;SDS011;72433;41.992;21.438;2024-01-25T22:50:44;13.48;;;7.35;;
82711;SDS011;72433;41.992;21.438;2024-01-25T22:53:10;44.38;;;20.45;;